Share

Petersburg, AK

Papke's Landing (KAKPETER3) Elev 75 ft | 56.68 °N, 132.93 °W | Change Station

Current weather conditions updated 7 minutes ago

Overcast
Overcast
42.6 °F
Feels Like 43 °F
N
0.0
Wind Variable Wind from ENE
Sunrise 5:32 AM
Sunset 8:13 PM
Moon Waning Gibbous

Today is forecast to be Warmer than yesterday. Chance of showers.

Pressure 29.77 in
Visibility 10.0 miles
Clouds Overcast 3700 ft
Windchill 43 °F
Dew Point 42 °F
Humidity 97%
Rainfall 0.05 in
Snow Depth Not available.
UV 0 out of 16
Pollen Not available.
Air Quality Not available.
Flu Activity Sporadic
METAR PAWG 201216Z AUTO 12017G20KT 10SM OVC037 07/02 A2977 RMK AO1

More Conditions Fewer Conditions

Pressure 29.77 in
Visibility 10.0 miles
Clouds Overcast 3700 ft
Windchill 43 °F
Dew Point 42 °F
Humidity 97%
Rainfall 0.05 in
Snow Depth Not available.
UV 0 out of 16
Pollen Not available.
Air Quality Not available.
Flu Activity Sporadic
METAR PAWG 201216Z AUTO 12017G20KT 10SM OVC037 07/02 A2977 RMK AO1

More Conditions Fewer Conditions

10-Day Weather Forecast

Almanac

Astronomy

Apr. 20, 2014 Rise Set
Actual Time 5:32 AM AKDT 8:13 PM AKDT
Civil Twilight 4:49 AM AKDT 8:56 PM AKDT
Nautical Twilight 3:53 AM AKDT 9:52 PM AKDT
Astronomical Twilight 2:40 AM AKDT 11:08 PM AKDT
Moon 1:23 AM AKDT 9:37 AM AKDT
Length of Visible Light 16h 06m
Length of Day
14h 41m
Tomorrow will be 4m 40s longer.
Waning Gibbous, 70% of the Moon is Illuminated
Today
Waning Gibbous
Apr 22
Last Quarter
Apr 29
New
May 6
First Quarter
May 14
Full

Today's Extremes

State Highs State Lows

Community

  • Easter Greetings
    Easter Greetings
  • Sunny day at the coast-Cape Arago Lighthouse
    Sunny day at the coast-Cape Arago Lighthouse
  • Cherry Blossoms
    Cherry Blossoms
  • White-Crowned Sparrow
    White-Crowned Sparrow
  • New Day
    New Day

WunderPhotos

Upload Photos

1,703,182 photos uploaded!

Nearby

Snow Depth

Station Depth Elevation
Long Lake 98 in 820 ft
Upper Tsaina River 53 in 1750 ft
Moraine 9 in 2100 ft
Grandview 35 in 1100 ft
Grouse Creek Divide 25 in 700 ft

Coastal Water Temperatures

Place Temperature
No Stations Reporting

Earthquake Activity

City Distance Mag. Time & Date
No recent earthquake activity has been reported nearby.
Minimum magnitude displayed is 2.5.

Nearby Weather Stations

Station Location Temp. Windchill Dew Point Humidity Wind Precip. Elev Updated Type
RAWS KAKE AK, Kake, AK 42 °F 38 °F 40 °F 94% SE  at  6 mph 0.01 in / hr 399 ft 2:55 AM AKDT MADIS
Papke's Landing, Petersburg, AK 42.6 °F 43 °F 42 °F 97% ENE  at  0.0 mph - / hr 75 ft 4:14 AM AKDT Normal

Show More Stations Show Fewer Stations

What do you think?

We're not finished. Please let us know what you like, what you don't like, and what you are still missing.